Time;durP1;ratioP1;P1;durP2;ratioP2;P2;SDS_P1;SDS_P2;PMS_P1;PMS_P2;Temp;Humidity;BMP_temperature;BMP_pressure;BME280_temperature;BME280_humidity;BME280_pressure;Samples;Min_cycle;Max_cycle;Signal;HPM_P1;HPM_P2
2022/09/20 00:01:42;;;;;;;22.90;10.30;;;;;;;8.57;70.38;98600.03;106139;1274;97860;-65
2022/09/20 00:04:10;;;;;;;20.40;10.40;;;;;;;8.58;70.42;98595.85;106008;1274;111995;-65
2022/09/20 00:06:38;;;;;;;20.30;9.40;;;;;;;8.60;70.34;98593.43;106048;1274;96237;-63
2022/09/20 00:09:08;;;;;;;21.00;9.60;;;;;;;8.61;70.49;98591.91;106097;1274;108360;-65
2022/09/20 00:11:38;;;;;;;18.60;9.20;;;;;;;8.63;70.57;98591.80;106138;1274;98609;-64
2022/09/20 00:14:08;;;;;;;19.10;9.10;;;;;;;8.63;70.54;98588.96;106134;1274;97839;-64
2022/09/20 00:16:42;;;;;;;18.80;8.90;;;;;;;8.64;70.58;98590.48;106089;1273;111829;-64
2022/09/20 00:19:18;;;;;;;20.00;8.70;;;;;;;8.66;70.73;98586.86;106118;1274;97941;-65
2022/09/20 00:21:48;;;;;;;19.20;9.00;;;;;;;8.66;70.61;98587.52;106141;1274;107366;-67
2022/09/20 00:24:16;;;;;;;18.80;8.90;;;;;;;8.67;70.68;98589.20;106094;1273;97845;-65
2022/09/20 00:26:46;;;;;;;18.20;8.60;;;;;;;8.70;70.59;98591.88;106102;1274;97908;-65
2022/09/20 00:29:15;;;;;;;15.70;7.80;;;;;;;8.69;70.70;98590.67;106001;1274;112110;-64
2022/09/20 00:31:46;;;;;;;19.40;8.10;;;;;;;8.69;70.74;98593.66;106106;1274;97877;-64
2022/09/20 00:37:02;;;;;;;18.70;8.40;;;;;;;8.72;70.67;98590.48;106102;1274;97965;-64
2022/09/20 00:39:30;;;;;;;17.30;8.20;;;;;;;8.73;70.89;98587.94;106134;1274;97901;-65
2022/09/20 00:41:58;;;;;;;17.90;8.20;;;;;;;8.74;70.90;98590.98;106116;1274;111973;-66
2022/09/20 00:44:58;;;;;;;17.00;8.30;;;;;;;8.75;70.92;98590.95;106175;1274;98569;-63
2022/09/20 00:47:44;;;;;;;15.90;7.60;;;;;;;8.75;70.90;98590.92;106117;1274;106475;-65
2022/09/20 00:50:33;;;;;;;18.70;8.00;;;;;;;8.75;70.91;98588.85;106154;1274;98797;-65
2022/09/20 00:53:22;;;;;;;16.40;7.70;;;;;;;8.74;70.83;98588.91;106197;1274;95269;-65
2022/09/20 00:55:58;;;;;;;17.30;7.90;;;;;;;8.74;71.01;98587.10;106100;1274;111406;-66
2022/09/20 00:58:31;;;;;;;15.20;6.80;;;;;;;8.75;70.98;98588.11;106102;1274;97903;-65
2022/09/20 01:00:59;;;;;;;;;;;;;;;8.76;70.99;98588.23;106128;1274;107715;-65
2022/09/20 01:03:34;;;;;;;14.50;6.40;;;;;;;8.76;71.05;98586.49;106105;1274;97880;-65
2022/09/20 01:06:10;;;;;;;12.90;5.70;;;;;;;8.76;71.10;98589.23;106102;1274;95265;-64
2022/09/20 01:08:43;;;;;;;14.50;6.30;;;;;;;8.76;70.88;98589.29;106063;1272;111040;-65
2022/09/20 01:11:11;;;;;;;13.70;6.10;;;;;;;8.76;71.16;98589.23;107438;1274;97882;-66
2022/09/20 01:13:41;;;;;;;15.40;6.70;;;;;;;8.77;71.07;98587.59;106062;1274;110178;-65
2022/09/20 01:16:12;;;;;;;15.90;6.30;;;;;;;8.78;71.07;98588.23;106011;1274;98472;-64
2022/09/20 01:18:43;;;;;;;13.90;6.20;;;;;;;8.80;71.08;98584.57;106099;1274;95266;-65
2022/09/20 01:21:14;;;;;;;11.80;6.00;;;;;;;8.82;71.19;98585.48;106152;1274;111429;-65
2022/09/20 01:23:54;;;;;;;13.50;5.70;;;;;;;8.82;71.17;98583.20;106165;1274;98008;-62
2022/09/20 01:26:43;;;;;;;13.50;6.10;;;;;;;8.83;71.14;98581.20;106148;1274;106728;-63
2022/09/20 01:29:18;;;;;;;11.20;5.20;;;;;;;8.80;71.15;98582.80;106122;1274;97986;-65
2022/09/20 01:31:55;;;;;;;11.00;5.20;;;;;;;8.80;71.18;98585.13;106188;1274;97806;-65
2022/09/20 01:34:34;;;;;;;9.50;4.80;;;;;;;8.80;71.25;98588.42;106146;1274;111131;-67
2022/09/20 01:37:27;;;;;;;9.10;4.50;;;;;;;8.80;71.31;98585.63;106122;1274;97859;-66
2022/09/20 01:40:18;;;;;;;9.80;4.90;;;;;;;8.80;71.20;98586.15;106094;1274;108745;-65
2022/09/20 01:43:02;;;;;;;8.40;4.30;;;;;;;8.82;71.49;98583.75;106203;1273;97997;-64
2022/09/20 01:45:33;;;;;;;10.30;4.10;;;;;;;8.82;71.30;98584.44;106154;1274;98972;-65
2022/09/20 01:48:34;;;;;;;9.10;4.30;;;;;;;8.82;71.33;98581.59;106148;1274;111234;-66
2022/09/20 01:51:17;;;;;;;8.80;4.00;;;;;;;8.82;71.44;98584.27;106112;1274;95197;-65
2022/09/20 01:54:09;;;;;;;8.20;4.00;;;;;;;8.82;71.38;98585.48;106123;1274;108347;-67
2022/09/20 01:56:58;;;;;;;8.40;4.00;;;;;;;8.85;71.48;98584.23;106164;1274;97988;-69
2022/09/20 01:59:45;;;;;;;7.50;3.70;;;;;;;8.87;71.52;98586.58;106179;1274;95184;-66
2022/09/20 02:02:47;;;;;;;7.20;3.20;;;;;;;8.87;71.53;98580.52;106088;1274;111807;-67
2022/09/20 02:05:28;;;;;;;10.80;3.60;;;;;;;8.88;71.51;98579.08;105885;1274;96406;-68
2022/09/20 02:08:11;;;;;;;5.50;3.00;;;;;;;8.88;71.53;98580.98;106135;1274;107756;-66
2022/09/20 02:10:48;;;;;;;9.10;3.20;;;;;;;8.90;71.47;98583.86;106102;1274;98235;-67
2022/09/20 02:13:28;;;;;;;5.60;3.00;;;;;;;8.90;71.47;98584.42;106196;1274;97860;-65
2022/09/20 02:16:28;;;;;;;7.80;3.80;;;;;;;8.90;71.49;98583.33;106192;1274;112013;-65
2022/09/20 02:19:34;;;;;;;5.10;3.00;;;;;;;8.88;71.59;98585.42;106194;1274;97859;-65
2022/09/20 02:22:11;;;;;;;7.40;3.20;;;;;;;8.88;71.74;98591.25;106014;1274;106375;-66
2022/09/20 02:25:09;;;;;;;6.90;3.20;;;;;;;8.87;71.69;98591.88;106189;1274;97437;-65
2022/09/20 02:28:12;;;;;;;7.00;3.30;;;;;;;8.88;71.79;98592.67;106109;1274;97877;-66
2022/09/20 02:30:56;;;;;;;6.70;3.10;;;;;;;8.87;71.82;98596.04;106098;1274;112005;-66
2022/09/20 02:33:55;;;;;;;7.80;3.30;;;;;;;8.89;71.89;98596.13;106125;1274;97924;-64
2022/09/20 02:36:46;;;;;;;5.00;3.00;;;;;;;8.89;71.80;98595.80;106055;1274;107748;-65
2022/09/20 02:39:29;;;;;;;6.20;3.20;;;;;;;8.86;71.80;98596.33;106222;1274;97908;-67
2022/09/20 02:42:30;;;;;;;5.10;3.10;;;;;;;8.86;71.83;98593.73;106006;1274;97790;-66
2022/09/20 02:45:14;;;;;;;6.00;2.90;;;;;;;8.86;71.80;98593.34;106101;1274;111066;-65
2022/09/20 02:47:46;;;;;;;4.40;3.10;;;;;;;8.88;71.97;98591.77;106229;1274;95301;-66
2022/09/20 02:50:45;;;;;;;6.10;2.80;;;;;;;8.87;71.78;98592.86;106202;1274;107909;-66
2022/09/20 02:53:42;;;;;;;5.10;2.60;;;;;;;8.83;71.94;98595.34;106152;1274;97978;-66
2022/09/20 02:56:34;;;;;;;7.40;3.20;;;;;;;8.84;71.79;98592.09;106131;1274;97868;-64
2022/09/20 02:59:27;;;;;;;5.40;3.10;;;;;;;8.84;72.01;98594.74;106137;1274;112781;-65
2022/09/20 03:02:18;;;;;;;7.40;3.50;;;;;;;8.84;71.97;98598.58;106126;1274;96743;-65
2022/09/20 03:05:03;;;;;;;10.20;4.20;;;;;;;8.84;72.01;98598.46;106205;1274;108424;-66
2022/09/20 03:07:47;;;;;;;10.80;3.90;;;;;;;8.83;72.04;98596.52;106099;1274;96302;-65
2022/09/20 03:10:35;;;;;;;9.20;4.20;;;;;;;8.83;72.11;98595.52;106032;1274;97986;-65
2022/09/20 03:13:24;;;;;;;6.60;3.70;;;;;;;8.84;71.95;98600.20;106124;1274;112081;-67
2022/09/20 03:16:16;;;;;;;8.00;3.70;;;;;;;8.85;72.10;98602.08;106085;1274;95360;-65
2022/09/20 03:19:00;;;;;;;6.90;3.40;;;;;;;8.84;72.16;98598.44;106007;1274;108443;-65
2022/09/20 03:21:46;;;;;;;7.50;3.10;;;;;;;8.85;72.18;98598.69;106104;1274;95296;-70
2022/09/20 03:24:28;;;;;;;8.10;3.80;;;;;;;8.86;72.13;98596.52;106069;1274;95327;-67
2022/09/20 03:27:22;;;;;;;8.00;3.80;;;;;;;8.85;72.11;98598.19;106176;1274;112066;-65
2022/09/20 03:30:14;;;;;;;8.40;3.60;;;;;;;8.85;72.16;98597.27;106092;1274;95323;-65
2022/09/20 03:32:59;;;;;;;6.30;3.50;;;;;;;8.83;72.26;98594.58;106139;1274;108370;-65
2022/09/20 03:35:57;;;;;;;7.20;3.20;;;;;;;8.85;72.24;98597.30;106124;1274;97985;-67
2022/09/20 03:39:37;;;;;;;10.00;4.00;;;;;;;8.84;72.34;98596.30;106019;1274;97879;-65
2022/09/20 04:11:08;;;;;;;10.50;4.90;;;;;;;8.54;72.60;98605.19;105877;1280;97979;-66
2022/09/20 04:22:52;;;;;;;12.10;4.60;;;;;;;8.58;72.69;98619.01;105315;1284;98194;-66
2022/09/20 04:37:24;;;;;;;15.70;7.10;;;;;;;8.78;73.27;98630.68;105404;1280;110093;-66
2022/09/20 04:40:09;;;;;;;16.80;7.70;;;;;;;8.82;73.22;98628.79;106030;1277;95506;-66
2022/09/20 04:43:14;;;;;;;17.90;8.60;;;;;;;8.87;73.18;98631.58;106102;1277;108533;-65
2022/09/20 04:46:04;;;;;;;17.80;8.30;;;;;;;8.92;73.33;98628.96;106010;1277;96405;-66
2022/09/20 04:48:55;;;;;;;17.10;8.10;;;;;;;8.97;73.30;98631.95;105905;1277;97905;-64
2022/09/20 04:51:53;;;;;;;19.80;9.80;;;;;;;9.02;73.35;98624.91;105998;1277;112176;-66
2022/09/20 04:54:36;;;;;;;19.80;10.00;;;;;;;9.07;73.35;98632.66;105872;1277;97910;-65
2022/09/20 04:57:45;;;;;;;20.00;10.80;;;;;;;9.12;73.29;98644.89;105931;1277;107712;-65
2022/09/20 05:00:23;;;;;;;20.60;10.20;;;;;;;9.16;73.47;98644.89;105855;1277;98039;-64
2022/09/20 05:03:22;;;;;;;21.50;11.90;;;;;;;9.21;73.38;98650.17;105857;1277;97057;-65
2022/09/20 05:06:33;;;;;;;20.90;11.20;;;;;;;9.27;73.51;98652.79;105961;1274;111907;-64
2022/09/20 05:09:21;;;;;;;20.00;10.40;;;;;;;9.31;73.56;98656.71;106069;1274;97848;-66
2022/09/20 05:12:09;;;;;;;20.20;10.60;;;;;;;9.35;73.51;98661.38;106018;1274;108356;-63
2022/09/20 05:15:01;;;;;;;20.10;10.50;;;;;;;9.38;73.49;98666.86;106651;1274;97962;-64
2022/09/20 05:18:09;;;;;;;21.20;11.60;;;;;;;9.39;73.44;98666.02;105943;1274;97879;-64
2022/09/20 05:21:04;;;;;;;22.20;11.80;;;;;;;9.41;73.46;98670.67;106021;1274;111566;-65
2022/09/20 05:23:37;;;;;;;21.40;11.50;;;;;;;9.43;73.65;98678.49;106040;1274;97881;-64
2022/09/20 05:26:07;;;;;;;20.50;11.40;;;;;;;9.46;73.67;98679.70;105966;1274;107685;-64
2022/09/20 05:28:57;;;;;;;23.10;12.30;;;;;;;9.51;73.67;98681.11;106086;1274;97951;-64
2022/09/20 05:31:45;;;;;;;21.10;12.10;;;;;;;9.54;73.73;98682.48;106111;1273;97826;-65
2022/09/20 05:34:25;;;;;;;24.90;11.80;;;;;;;9.58;73.84;98683.46;106045;1274;112076;-67
2022/09/20 05:37:19;;;;;;;20.90;11.00;;;;;;;9.61;73.78;98691.00;106175;1274;97762;-66
2022/09/20 05:39:53;;;;;;;;;;;;;;;9.64;73.79;98687.58;106134;1274;107625;-62
2022/09/20 05:42:33;;;;;;;18.80;9.40;;;;;;;9.65;73.87;98694.08;106132;1274;97858;-65
2022/09/20 05:45:20;;;;;;;22.00;10.30;;;;;;;9.67;73.88;98698.48;106109;1274;96426;-64
2022/09/20 05:48:09;;;;;;;20.70;9.80;;;;;;;9.71;73.89;98698.63;106112;1274;111970;-66
2022/09/20 05:50:46;;;;;;;20.40;10.20;;;;;;;9.73;73.92;98693.29;106151;1274;96375;-64
2022/09/20 05:53:40;;;;;;;20.20;9.10;;;;;;;9.75;73.87;98692.45;106132;1274;108770;-63
2022/09/20 05:56:46;;;;;;;19.10;9.40;;;;;;;9.76;73.85;98690.46;106086;1274;95381;-63
2022/09/20 05:59:26;;;;;;;18.80;9.30;;;;;;;9.78;73.98;98693.42;106138;1274;97887;-64
2022/09/20 06:02:19;;;;;;;18.60;9.50;;;;;;;9.80;73.96;98699.97;106160;1274;111915;-64
2022/09/20 06:05:09;;;;;;;19.00;9.80;;;;;;;9.83;73.95;98703.67;106062;1274;97931;-65
2022/09/20 06:07:57;;;;;;;20.60;10.80;;;;;;;9.86;73.99;98706.31;106042;1274;108384;-64
2022/09/20 06:10:46;;;;;;;20.80;10.90;;;;;;;9.88;74.01;98706.13;106092;1274;98103;-61
2022/09/20 06:13:58;;;;;;;21.10;10.70;;;;;;;9.89;73.99;98704.83;106032;1274;95300;-63
2022/09/20 06:16:32;;;;;;;22.10;11.80;;;;;;;9.91;74.02;98705.93;106063;1276;112510;-63
2022/09/20 06:19:24;;;;;;;26.10;14.00;;;;;;;9.92;74.03;98705.52;106135;1274;96982;-64
2022/09/20 06:21:59;;;;;;;24.00;13.80;;;;;;;9.94;74.12;98701.08;106083;1274;108437;-66
2022/09/20 06:25:03;;;;;;;25.30;13.90;;;;;;;9.97;74.02;98704.06;106096;1274;97991;-64
2022/09/20 06:27:52;;;;;;;25.40;14.30;;;;;;;9.97;74.15;98703.52;106071;1274;97985;-65
2022/09/20 06:30:29;;;;;;;25.60;14.70;;;;;;;10.02;74.13;98706.19;105984;1274;112039;-66
2022/09/20 06:33:24;;;;;;;26.30;15.70;;;;;;;10.04;74.14;98707.98;106067;1274;95377;-64
2022/09/20 06:41:56;;;;;;;25.30;14.10;;;;;;;10.03;74.12;98723.13;106054;1274;95180;-63
2022/09/20 06:44:26;;;;;;;25.90;13.80;;;;;;;10.03;74.06;98727.52;105985;1274;111829;-65
2022/09/20 06:46:56;;;;;;;25.40;14.40;;;;;;;10.03;74.14;98727.21;106065;1274;95246;-64
2022/09/20 06:49:26;;;;;;;25.90;13.90;;;;;;;10.02;74.05;98726.94;106074;1274;108258;-65
2022/09/20 06:51:56;;;;;;;24.00;14.00;;;;;;;10.01;74.13;98733.68;105985;1274;95293;-63
2022/09/20 06:54:26;;;;;;;27.00;14.60;;;;;;;10.03;74.25;98736.39;106003;1274;97819;-63
2022/09/20 06:57:01;;;;;;;23.40;13.50;;;;;;;10.05;74.20;98737.67;106015;1274;112065;-63
2022/09/20 06:59:33;;;;;;;24.00;13.80;;;;;;;10.07;74.26;98740.51;105992;1274;97002;-64
2022/09/20 07:02:01;;;;;;;23.00;13.00;;;;;;;10.09;74.20;98742.25;105935;1275;108305;-63
2022/09/20 07:04:31;;;;;;;23.10;12.70;;;;;;;10.11;74.19;98739.85;106009;1274;97939;-64
2022/09/20 07:07:04;;;;;;;20.90;11.50;;;;;;;10.12;74.18;98745.21;106076;1274;98102;-65
2022/09/20 07:09:38;;;;;;;22.70;13.20;;;;;;;10.10;74.19;98747.14;106099;1274;112074;-65
2022/09/20 07:12:08;;;;;;;22.30;11.40;;;;;;;10.10;74.12;98750.71;106112;1274;96334;-65
2022/09/20 07:14:39;;;;;;;21.40;11.70;;;;;;;10.09;74.27;98753.48;106120;1274;107343;-65
2022/09/20 07:17:06;;;;;;;23.20;11.70;;;;;;;10.10;74.29;98758.70;106032;1274;97967;-64
2022/09/20 07:19:35;;;;;;;22.90;12.40;;;;;;;10.12;74.36;98758.00;106144;1274;99655;-63
2022/09/20 07:22:05;;;;;;;21.70;12.40;;;;;;;10.17;74.31;98758.58;106019;1274;112639;-63
2022/09/20 07:24:33;;;;;;;26.30;13.40;;;;;;;10.19;74.43;98760.66;106018;1274;97885;-64
2022/09/20 07:27:06;;;;;;;22.80;12.80;;;;;;;10.22;74.36;98764.52;106143;1274;108318;-64
2022/09/20 07:29:36;;;;;;;23.00;13.30;;;;;;;10.24;74.21;98765.80;106113;1274;97001;-65
2022/09/20 07:32:04;;;;;;;22.70;12.90;;;;;;;10.23;74.45;98769.09;106140;1274;97834;-65
2022/09/20 07:34:33;;;;;;;22.40;13.10;;;;;;;10.22;74.33;98769.13;105989;1274;112041;-64
2022/09/20 07:37:01;;;;;;;22.60;13.10;;;;;;;10.22;74.28;98773.95;106021;1274;97931;-63
2022/09/20 07:39:31;;;;;;;25.50;14.40;;;;;;;10.23;74.37;98773.82;105963;1274;108429;-64
2022/09/20 07:42:05;;;;;;;24.30;14.40;;;;;;;10.24;74.34;98774.70;105989;1274;95252;-64
2022/09/20 07:44:33;;;;;;;23.60;13.60;;;;;;;10.21;74.34;98778.26;106007;1274;98017;-64
2022/09/20 07:47:02;;;;;;;22.40;13.50;;;;;;;10.21;74.39;98778.05;105976;1274;112013;-64
2022/09/20 07:49:32;;;;;;;22.90;13.30;;;;;;;10.24;74.53;98773.02;106032;1274;97896;-65
2022/09/20 07:52:04;;;;;;;22.50;13.50;;;;;;;10.29;74.55;98772.36;105994;1274;108409;-65
2022/09/20 07:54:33;;;;;;;23.90;14.30;;;;;;;10.34;74.62;98777.10;106001;1274;97071;-64
2022/09/20 07:57:04;;;;;;;22.90;13.40;;;;;;;10.39;74.47;98773.54;105977;1274;97936;-63
2022/09/20 07:59:32;;;;;;;25.10;14.80;;;;;;;10.42;74.62;98775.46;106022;1274;111396;-64
2022/09/20 08:02:00;;;;;;;23.10;12.50;;;;;;;10.48;74.47;98778.91;106019;1274;95324;-65
2022/09/20 08:04:32;;;;;;;22.90;12.70;;;;;;;10.52;74.50;98782.35;105953;1274;108673;-65
2022/09/20 08:07:00;;;;;;;22.10;12.60;;;;;;;10.54;74.44;98786.10;105980;1274;97931;-63
2022/09/20 08:09:32;;;;;;;24.20;13.40;;;;;;;10.58;74.46;98790.25;106053;1274;97966;-64
2022/09/20 08:12:05;;;;;;;23.40;12.50;;;;;;;10.58;74.39;98785.92;105980;1276;111978;-64
2022/09/20 08:14:52;;;;;;;23.20;13.60;;;;;;;10.60;74.56;98784.88;106143;1274;97996;-65
2022/09/20 08:17:20;;;;;;;23.10;12.00;;;;;;;10.66;74.60;98785.88;106083;1274;108297;-63
2022/09/20 08:19:49;;;;;;;23.60;13.50;;;;;;;10.69;74.50;98787.02;106096;1274;98563;-66
2022/09/20 08:22:20;;;;;;;22.70;13.50;;;;;;;10.71;74.54;98789.03;106095;1274;97877;-63
2022/09/20 08:24:50;;;;;;;23.50;12.30;;;;;;;10.76;74.57;98790.66;106024;1274;111414;-65
2022/09/20 08:27:20;;;;;;;21.60;11.50;;;;;;;10.82;74.55;98787.48;105987;1274;96507;-64
2022/09/20 08:29:48;;;;;;;19.10;10.30;;;;;;;10.87;74.55;98789.90;106094;1274;108618;-64
2022/09/20 08:32:18;;;;;;;20.10;10.70;;;;;;;10.90;74.60;98791.50;106026;1274;97004;-64
2022/09/20 08:34:48;;;;;;;21.30;11.50;;;;;;;10.91;74.65;98795.13;106087;1274;97982;-65
2022/09/20 08:37:18;;;;;;;21.70;11.80;;;;;;;10.93;74.58;98798.48;106063;1274;111403;-66
2022/09/20 08:39:49;;;;;;;22.00;12.00;;;;;;;10.95;74.67;98799.08;106222;1274;97900;-63
2022/09/20 08:42:33;;;;;;;22.70;11.80;;;;;;;10.95;74.61;98801.52;106238;1274;107974;-64
2022/09/20 08:45:20;;;;;;;20.60;11.50;;;;;;;10.95;74.48;98801.38;105999;1274;97873;-64
2022/09/20 08:48:13;;;;;;;20.60;10.80;;;;;;;10.98;74.47;98798.30;106014;1274;97867;-65
2022/09/20 08:50:41;;;;;;;21.20;11.70;;;;;;;11.00;74.60;98800.30;105979;1274;112096;-64
2022/09/20 08:53:15;;;;;;;21.60;11.80;;;;;;;11.01;74.54;98794.33;106114;1274;95225;-64
2022/09/20 08:55:50;;;;;;;21.60;11.80;;;;;;;11.05;74.66;98796.48;105999;1274;108384;-64
2022/09/20 08:58:18;;;;;;;19.10;11.00;;;;;;;11.11;74.76;98796.70;105995;1274;95288;-63
2022/09/20 09:00:47;;;;;;;22.60;12.00;;;;;;;11.14;74.50;98796.17;106013;1274;97867;-64
2022/09/20 09:03:19;;;;;;;21.00;11.00;;;;;;;11.12;74.63;98795.09;105975;1274;112709;-65
2022/09/20 09:05:58;;;;;;;21.80;12.60;;;;;;;11.10;74.51;98798.40;105971;1274;98493;-65
2022/09/20 09:08:36;;;;;;;21.50;10.80;;;;;;;11.10;74.54;98796.67;105987;1274;107820;-63
2022/09/20 09:11:15;;;;;;;22.20;11.50;;;;;;;11.14;74.68;98796.54;105994;1274;98704;-64
2022/09/20 09:13:57;;;;;;;21.00;12.90;;;;;;;11.22;74.72;98795.55;106040;1274;97778;-64
2022/09/20 09:16:31;;;;;;;22.60;11.30;;;;;;;11.33;74.82;98795.19;105979;1274;112465;-65
2022/09/20 09:19:43;;;;;;;21.90;11.60;;;;;;;11.42;74.73;98796.05;106004;1274;97964;-65
2022/09/20 09:22:21;;;;;;;21.40;10.50;;;;;;;11.49;74.73;98794.98;106100;1274;108362;-65
2022/09/20 09:25:36;;;;;;;21.30;12.30;;;;;;;11.53;74.72;98792.19;106127;1274;95382;-65
2022/09/20 09:28:07;;;;;;;18.50;10.00;;;;;;;11.55;74.60;98800.56;105476;1282;97982;-63
2022/09/20 09:30:40;;;;;;;21.60;11.40;;;;;;;11.55;74.50;98799.83;105442;1281;112134;-62
2022/09/20 09:33:32;;;;;;;19.50;10.70;;;;;;;11.58;74.43;98794.77;105881;1276;97980;-63
2022/09/20 09:36:03;;;;;;;21.40;10.00;;;;;;;11.68;74.62;98792.94;106030;1274;108481;-64
2022/09/20 09:38:40;;;;;;;21.40;9.90;;;;;;;11.73;74.51;98789.48;105973;1274;97982;-65
2022/09/20 09:41:23;;;;;;;21.70;10.50;;;;;;;11.82;74.64;98786.08;106184;1273;97995;-63
2022/09/20 09:44:06;;;;;;;18.30;9.00;;;;;;;12.00;74.57;98785.34;106136;1274;112038;-64
2022/09/20 09:46:38;;;;;;;16.90;8.50;;;;;;;12.14;74.62;98786.50;106107;1274;95262;-63
2022/09/20 09:49:26;;;;;;;17.00;8.70;;;;;;;12.17;74.56;98783.05;106111;1274;107616;-64
2022/09/20 09:52:12;;;;;;;16.40;8.00;;;;;;;12.16;74.57;98787.36;106095;1273;97944;-64
2022/09/20 09:54:49;;;;;;;18.20;7.50;;;;;;;12.19;74.52;98787.50;106123;1274;97884;-64
2022/09/20 09:57:32;;;;;;;17.10;7.60;;;;;;;12.18;74.44;98788.51;106026;1274;111344;-65
2022/09/20 10:00:19;;;;;;;14.60;7.60;;;;;;;12.12;74.57;98789.35;106030;1274;98491;-65
2022/09/20 10:03:07;;;;;;;18.00;7.80;;;;;;;12.03;74.41;98791.10;106082;1274;106722;-63
2022/09/20 10:06:12;;;;;;;14.90;7.40;;;;;;;11.98;74.34;98792.94;106024;1274;97992;-63
2022/09/20 10:09:09;;;;;;;14.50;7.50;;;;;;;11.93;74.34;98791.59;106043;1274;97853;-64
2022/09/20 10:11:57;;;;;;;13.20;7.40;;;;;;;11.95;74.32;98790.05;105986;1274;112562;-65
2022/09/20 10:14:56;;;;;;;13.30;6.10;;;;;;;12.03;74.48;98785.07;106051;1274;95371;-66
2022/09/20 10:17:31;;;;;;;12.00;6.20;;;;;;;12.15;74.42;98788.70;105979;1274;108536;-64
2022/09/20 10:20:08;;;;;;;12.90;5.50;;;;;;;12.21;74.38;98788.55;106002;1274;97841;-64
2022/09/20 10:22:45;;;;;;;11.30;5.70;;;;;;;12.28;74.30;98785.17;106042;1274;97823;-64
2022/09/20 10:25:57;;;;;;;10.30;5.40;;;;;;;12.41;74.39;98783.22;105974;1274;112013;-64
2022/09/20 10:28:47;;;;;;;11.90;5.30;;;;;;;12.59;74.43;98782.56;106020;1274;95379;-64
2022/09/20 10:31:41;;;;;;;12.90;5.90;;;;;;;12.77;74.37;98785.64;106104;1274;107788;-65
2022/09/20 10:34:39;;;;;;;10.50;5.20;;;;;;;12.91;74.29;98786.23;105993;1274;95261;-64
2022/09/20 10:37:24;;;;;;;9.90;5.00;;;;;;;13.08;74.23;98783.72;106047;1274;97912;-64
2022/09/20 10:40:23;;;;;;;11.90;5.00;;;;;;;13.19;74.17;98782.69;106103;1274;112029;-64
2022/09/20 10:43:16;;;;;;;10.00;4.90;;;;;;;13.34;74.18;98781.25;105974;1274;97843;-64
2022/09/20 10:45:53;;;;;;;9.10;4.80;;;;;;;13.44;73.98;98782.57;106079;1274;108448;-64
2022/09/20 10:48:55;;;;;;;8.40;4.70;;;;;;;13.51;73.94;98787.77;105983;1276;95278;-64
2022/09/20 10:51:50;;;;;;;11.60;5.20;;;;;;;13.55;73.80;98781.72;106049;1274;96980;-63
2022/09/20 10:54:53;;;;;;;11.30;4.90;;;;;;;13.61;73.65;98783.34;105919;1274;112239;-65
2022/09/20 10:57:40;;;;;;;10.20;4.90;;;;;;;13.63;73.61;98779.20;105989;1276;97896;-64
2022/09/20 11:00:22;;;;;;;9.80;4.40;;;;;;;13.67;73.74;98783.27;106000;1274;108344;-64
2022/09/20 11:03:27;;;;;;;7.60;3.70;;;;;;;13.79;73.78;98786.40;106009;1274;95368;-61
2022/09/20 11:06:12;;;;;;;8.80;3.80;;;;;;;13.90;73.58;98791.41;105993;1274;95270;-65
2022/09/20 11:08:49;;;;;;;7.40;3.90;;;;;;;13.94;73.59;98791.56;106002;1274;111944;-63
2022/09/20 11:11:35;;;;;;;7.90;3.90;;;;;;;13.96;73.44;98790.69;106109;1274;95308;-64
2022/09/20 11:14:32;;;;;;;7.50;3.80;;;;;;;13.93;73.36;98796.14;106146;1274;108944;-63
2022/09/20 11:17:27;;;;;;;7.70;3.70;;;;;;;13.90;73.26;98796.10;106034;1274;97949;-64
2022/09/20 11:20:17;;;;;;;8.20;3.80;;;;;;;13.97;73.27;98791.36;105998;1274;97842;-65
2022/09/20 11:23:13;;;;;;;6.00;3.40;;;;;;;14.07;73.25;98783.25;105986;1274;112397;-64
2022/09/20 11:26:14;;;;;;;4.50;3.00;;;;;;;14.28;73.10;98785.63;106059;1274;97968;-63
2022/09/20 11:28:52;;;;;;;7.10;2.80;;;;;;;14.47;73.07;98780.70;106057;1274;107556;-63
2022/09/20 11:31:37;;;;;;;6.20;3.00;;;;;;;14.64;73.04;98775.01;105961;1275;97770;-63
2022/09/20 11:34:37;;;;;;;5.00;3.10;;;;;;;14.84;72.90;98774.98;106126;1274;97955;-65
2022/09/20 11:37:10;;;;;;;6.40;3.40;;;;;;;14.88;72.76;98770.04;106060;1274;113405;-65
2022/09/20 11:39:54;;;;;;;7.40;3.10;;;;;;;14.92;72.69;98767.98;106065;1274;97899;-65
2022/09/20 11:42:34;;;;;;;6.30;3.00;;;;;;;14.92;72.41;98771.36;105979;1274;108508;-64
2022/09/20 11:45:05;;;;;;;6.70;3.30;;;;;;;14.90;72.32;98774.75;106016;1274;97927;-63
2022/09/20 11:47:43;;;;;;;7.60;3.00;;;;;;;14.88;72.35;98771.71;106063;1274;97983;-64
2022/09/20 11:50:52;;;;;;;4.80;3.10;;;;;;;14.81;72.08;98772.42;106069;1274;111984;-65
2022/09/20 11:53:39;;;;;;;6.50;2.90;;;;;;;14.70;72.00;98772.80;106051;1274;95210;-65
2022/09/20 11:56:24;;;;;;;5.00;2.70;;;;;;;14.69;71.93;98772.61;106067;1274;107721;-64
2022/09/20 11:59:02;;;;;;;6.60;2.70;;;;;;;14.69;71.86;98768.48;106071;1274;97874;-63
2022/09/20 12:01:35;;;;;;;4.50;2.80;;;;;;;14.72;71.72;98769.28;106199;1274;97943;-63
2022/09/20 12:04:22;;;;;;;6.20;2.90;;;;;;;14.83;71.81;98769.14;106186;1274;111172;-62
2022/09/20 12:07:30;;;;;;;6.70;3.10;;;;;;;14.92;71.62;98764.06;106182;1274;97887;-64
2022/09/20 12:10:21;;;;;;;5.30;3.00;;;;;;;14.93;71.37;98772.17;106035;1274;108352;-64
2022/09/20 12:13:04;;;;;;;6.50;2.80;;;;;;;14.96;71.31;98771.02;106007;1274;97982;-64
2022/09/20 12:15:39;;;;;;;3.60;2.40;;;;;;;14.93;71.10;98771.94;106130;1274;97818;-63
2022/09/20 12:18:31;;;;;;;5.00;3.20;;;;;;;14.89;70.99;98775.17;106096;1274;111994;-65
2022/09/20 12:21:06;;;;;;;5.60;2.40;;;;;;;14.91;70.93;98778.08;106155;1274;96641;-65
2022/09/20 12:23:37;;;;;;;5.90;3.00;;;;;;;14.90;70.79;98780.98;106140;1274;107587;-65
2022/09/20 12:26:19;;;;;;;7.30;2.90;;;;;;;14.87;70.77;98780.17;106070;1274;97821;-64
2022/09/20 12:28:57;;;;;;;4.20;2.60;;;;;;;14.80;70.46;98779.80;106000;1274;97860;-64
2022/09/20 12:31:28;;;;;;;6.80;3.10;;;;;;;14.78;70.55;98778.91;106028;1274;111114;-65
2022/09/20 12:34:11;;;;;;;4.60;2.70;;;;;;;14.79;70.41;98781.50;105965;1274;97903;-64
2022/09/20 12:36:43;;;;;;;6.40;2.80;;;;;;;14.83;70.39;98783.27;106073;1274;107683;-64
2022/09/20 12:39:11;;;;;;;5.50;2.80;;;;;;;14.84;70.22;98779.41;106034;1274;98141;-64
2022/09/20 12:41:55;;;;;;;7.60;2.90;;;;;;;14.85;70.14;98784.67;105951;1276;97972;-65
2022/09/20 12:44:47;;;;;;;5.30;2.90;;;;;;;14.86;70.17;98781.91;106059;1274;112421;-64
2022/09/20 12:47:27;;;;;;;5.50;2.30;;;;;;;14.80;70.09;98778.71;105937;1274;97520;-65
2022/09/20 12:53:02;;;;;;;2.30;1.30;;;;;;;14.60;69.54;98785.02;106146;1274;97989;-64
2022/09/20 12:55:42;;;;;;;1.60;1.40;;;;;;;14.54;69.49;98793.48;106131;1274;97865;-65
2022/09/20 12:58:13;;;;;;;4.60;1.60;;;;;;;14.38;69.43;98790.98;106086;1274;113202;-62
2022/09/20 13:00:59;;;;;;;6.80;2.30;;;;;;;14.15;69.21;98786.67;106010;1274;97848;-64
2022/09/20 13:03:34;;;;;;;3.90;1.80;;;;;;;13.93;69.19;98790.68;106093;1274;108363;-66
2022/09/20 13:06:05;;;;;;;3.10;1.50;;;;;;;13.77;68.98;98784.02;106190;1274;97978;-65
2022/09/20 13:08:48;;;;;;;2.10;1.40;;;;;;;13.69;69.01;98786.33;106140;1274;97984;-64
2022/09/20 13:11:42;;;;;;;3.90;1.70;;;;;;;13.66;69.04;98789.64;106459;1274;111727;-65
2022/09/20 13:14:23;;;;;;;1.70;1.50;;;;;;;13.61;69.03;98791.38;106065;1274;98502;-64
2022/09/20 13:16:53;;;;;;;3.50;2.00;;;;;;;13.55;68.78;98790.10;106088;1274;108351;-65
2022/09/20 13:19:37;;;;;;;1.60;1.50;;;;;;;13.52;68.88;98794.48;106058;1274;97986;-65
2022/09/20 13:22:12;;;;;;;;;;;;;;;13.53;68.79;98795.98;106123;1274;98508;-64
2022/09/20 13:24:46;;;;;;;2.40;1.50;;;;;;;13.54;68.75;98795.52;106097;1274;112032;-65
2022/09/20 13:27:28;;;;;;;2.90;1.90;;;;;;;13.53;68.60;98792.04;106046;1275;96283;-66
2022/09/20 13:30:16;;;;;;;4.20;2.00;;;;;;;13.54;68.71;98794.46;105962;1275;108635;-67